Time;durP1;ratioP1;P1;durP2;ratioP2;P2;SDS_P1;SDS_P2;PMS_P1;PMS_P2;Temp;Humidity;BMP_temperature;BMP_pressure;BME280_temperature;BME280_humidity;BME280_pressure;Samples;Min_cycle;Max_cycle;Signal;HPM_P1;HPM_P2
2021/03/01 00:01:13;;;;;;;30.13;15.55;;;5.40;99.90;;;;;;4971613;28;20034;-58
2021/03/01 00:03:38;;;;;;;32.17;15.40;;;5.40;99.90;;;;;;4971649;28;20042;-58
2021/03/01 00:06:04;;;;;;;31.85;15.60;;;5.40;99.90;;;;;;4989040;28;20038;-59
2021/03/01 00:08:30;;;;;;;27.80;13.75;;;5.40;99.90;;;;;;4988294;28;20114;-54
2021/03/01 00:10:56;;;;;;;28.10;13.63;;;5.40;99.90;;;;;;4970895;28;20125;-60
2021/03/01 00:13:23;;;;;;;29.92;15.35;;;5.40;99.90;;;;;;4989076;28;20053;-56
2021/03/01 00:15:50;;;;;;;29.92;14.20;;;5.40;99.90;;;;;;4988568;28;20482;-52
2021/03/01 00:18:16;;;;;;;29.77;14.95;;;5.40;99.90;;;;;;4988027;28;20032;-56
2021/03/01 00:20:41;;;;;;;30.50;15.75;;;5.30;99.90;;;;;;5003140;28;20018;-56
2021/03/01 00:23:10;;;;;;;26.05;14.13;;;5.30;99.90;;;;;;4987576;28;20034;-58
2021/03/01 00:25:36;;;;;;;28.60;14.50;;;5.30;99.90;;;;;;4988202;28;20073;-57
2021/03/01 00:28:02;;;;;;;28.13;14.07;;;5.20;99.90;;;;;;4988319;28;20026;-59
2021/03/01 00:30:28;;;;;;;27.10;13.82;;;5.30;99.90;;;;;;5002963;28;20248;-56
2021/03/01 00:32:54;;;;;;;28.33;14.23;;;5.30;99.90;;;;;;4970914;28;20113;-60
2021/03/01 00:35:19;;;;;;;26.83;13.98;;;5.30;99.90;;;;;;4988004;28;20033;-56
2021/03/01 00:37:45;;;;;;;26.25;13.75;;;5.20;99.90;;;;;;4970600;28;20438;-55
2021/03/01 00:40:11;;;;;;;26.23;13.60;;;5.30;99.90;;;;;;5003119;28;20077;-56
2021/03/01 00:42:37;;;;;;;27.10;14.68;;;5.30;99.90;;;;;;4970958;28;20403;-58
2021/03/01 00:45:05;;;;;;;30.25;14.00;;;5.20;99.90;;;;;;5003241;28;20022;-60
2021/03/01 00:47:31;;;;;;;27.95;14.63;;;5.20;99.90;;;;;;4987606;28;20061;-56
2021/03/01 00:52:25;;;;;;;29.17;16.48;;;5.20;99.90;;;;;;5047323;28;20056;-62
2021/03/01 00:54:51;;;;;;;27.40;13.65;;;5.20;99.90;;;;;;5050168;28;20025;-62
2021/03/01 00:57:17;;;;;;;28.38;14.38;;;5.20;99.90;;;;;;5032463;28;20086;-63
2021/03/01 00:59:42;;;;;;;28.13;14.57;;;5.30;99.90;;;;;;5049079;28;20517;-62
2021/03/01 01:02:08;;;;;;;29.70;15.95;;;5.30;99.90;;;;;;5049274;28;20527;-62
2021/03/01 01:04:33;;;;;;;29.98;14.02;;;5.30;99.90;;;;;;5031449;28;20025;-62
2021/03/01 01:06:59;;;;;;;29.15;14.30;;;5.20;99.90;;;;;;5031605;28;20503;-62
2021/03/01 01:09:25;;;;;;;27.30;14.07;;;5.30;99.90;;;;;;5030848;28;20388;-63
2021/03/01 01:11:51;;;;;;;27.73;14.90;;;5.20;99.90;;;;;;5031359;28;20144;-64
2021/03/01 01:14:17;;;;;;;31.08;15.93;;;5.30;99.90;;;;;;5049717;28;20040;-63
2021/03/01 01:16:42;;;;;;;27.30;13.88;;;5.20;99.90;;;;;;5032573;28;20021;-63
2021/03/01 01:19:09;;;;;;;29.15;15.73;;;5.20;99.90;;;;;;5049434;28;20056;-62
2021/03/01 01:21:35;;;;;;;26.48;14.45;;;5.20;99.90;;;;;;5032766;28;20028;-61
2021/03/01 01:24:01;;;;;;;28.95;14.43;;;5.30;99.90;;;;;;5050329;28;20458;-62
2021/03/01 01:26:27;;;;;;;29.55;16.02;;;5.20;99.90;;;;;;5050687;28;20104;-62
2021/03/01 01:28:53;;;;;;;31.77;16.27;;;5.20;99.90;;;;;;5049362;28;20075;-62
2021/03/01 01:31:19;;;;;;;28.90;14.73;;;5.20;99.90;;;;;;5052310;28;20120;-62
2021/03/01 01:33:44;;;;;;;33.03;16.65;;;5.20;99.90;;;;;;5035515;28;20036;-64
2021/03/01 01:36:12;;;;;;;30.48;13.77;;;5.20;99.90;;;;;;5053623;28;20415;-63
2021/03/01 01:38:37;;;;;;;37.00;17.13;;;5.20;99.90;;;;;;5053122;28;20033;-63
2021/03/01 01:41:03;;;;;;;32.20;16.90;;;5.30;99.90;;;;;;5053398;28;20096;-63
2021/03/01 01:43:29;;;;;;;33.20;17.65;;;5.30;99.90;;;;;;5053354;28;20040;-59
2021/03/01 01:45:54;;;;;;;30.88;16.63;;;5.30;99.90;;;;;;5053760;28;20586;-63
2021/03/01 01:48:20;;;;;;;28.83;14.65;;;5.30;99.90;;;;;;5053119;28;20472;-63
2021/03/01 01:50:46;;;;;;;32.22;15.40;;;5.20;99.90;;;;;;5052990;28;20049;-64
2021/03/01 01:53:12;;;;;;;32.65;17.42;;;5.30;99.90;;;;;;5053425;28;20021;-65
2021/03/01 01:55:38;;;;;;;29.10;15.88;;;5.30;99.90;;;;;;5053385;28;20036;-60
2021/03/01 01:58:05;;;;;;;29.95;14.52;;;5.30;99.90;;;;;;5053591;28;20017;-61
2021/03/01 02:00:46;;;;;;;28.60;14.27;;;5.30;99.90;;;;;;5034914;28;20025;-62
2021/03/01 02:03:28;;;;;;;29.75;13.77;;;5.40;99.90;;;;;;5053811;28;20029;-62
2021/03/01 02:06:02;;;;;;;29.20;14.18;;;5.40;99.90;;;;;;5052998;28;20068;-63
2021/03/01 02:08:37;;;;;;;27.92;12.57;;;5.30;99.90;;;;;;5052404;28;20075;-62
2021/03/01 02:11:09;;;;;;;28.15;13.88;;;5.30;99.90;;;;;;5035237;28;20182;-64
2021/03/01 02:13:48;;;;;;;30.90;13.32;;;5.30;99.90;;;;;;5034897;28;20074;-62
2021/03/01 02:16:23;;;;;;;26.80;12.98;;;5.30;99.90;;;;;;5053001;28;20018;-64
2021/03/01 02:18:49;;;;;;;27.60;12.48;;;5.20;99.90;;;;;;5052065;28;20056;-63
2021/03/01 02:21:15;;;;;;;29.17;12.95;;;5.20;99.90;;;;;;5034591;28;20067;-63
2021/03/01 02:23:42;;;;;;;27.08;12.45;;;5.00;99.90;;;;;;5052736;28;20028;-62
2021/03/01 02:26:18;;;;;;;29.48;13.40;;;5.00;99.90;;;;;;5034689;28;20029;-60
2021/03/01 02:28:49;;;;;;;29.27;14.00;;;5.00;99.90;;;;;;5052169;28;20039;-62
2021/03/01 02:31:16;;;;;;;28.73;13.23;;;4.90;99.90;;;;;;5052483;28;20393;-61
2021/03/01 02:33:48;;;;;;;27.17;13.07;;;4.90;99.90;;;;;;5052320;28;20032;-64
2021/03/01 02:36:27;;;;;;;29.52;14.43;;;5.00;99.90;;;;;;5052549;28;20021;-63
2021/03/01 02:38:55;;;;;;;29.13;14.02;;;4.90;99.90;;;;;;5051854;28;20032;-63
2021/03/01 02:41:23;;;;;;;30.83;14.32;;;4.90;99.90;;;;;;5034037;28;20083;-63
2021/03/01 02:43:49;;;;;;;30.05;13.68;;;4.80;99.90;;;;;;5034399;28;20046;-64
2021/03/01 02:46:17;;;;;;;29.63;14.05;;;4.80;99.90;;;;;;5052288;28;20639;-62
2021/03/01 02:48:43;;;;;;;26.05;11.50;;;4.80;99.90;;;;;;5033807;28;20025;-63
2021/03/01 02:51:11;;;;;;;30.52;14.05;;;4.80;99.90;;;;;;5034233;28;20103;-62
2021/03/01 02:53:39;;;;;;;30.17;13.65;;;4.80;99.90;;;;;;5034286;28;20029;-63
2021/03/01 02:56:06;;;;;;;27.58;12.88;;;4.80;99.90;;;;;;5052216;28;20028;-59
2021/03/01 02:58:35;;;;;;;28.45;12.45;;;4.70;99.90;;;;;;5017468;28;20481;-63
2021/03/01 03:01:02;;;;;;;28.40;13.88;;;4.80;99.90;;;;;;5052000;28;20078;-60
2021/03/01 03:03:29;;;;;;;25.92;12.50;;;4.80;99.90;;;;;;5051918;28;20025;-63
2021/03/01 03:05:55;;;;;;;29.45;13.43;;;4.80;99.90;;;;;;5051842;28;20040;-63
2021/03/01 03:08:21;;;;;;;31.45;13.85;;;4.80;99.90;;;;;;5033205;28;20373;-63
2021/03/01 03:10:49;;;;;;;29.15;13.30;;;4.80;99.90;;;;;;5051564;28;20134;-64
2021/03/01 03:13:16;;;;;;;28.45;13.02;;;4.80;99.90;;;;;;5051518;28;20036;-63
2021/03/01 03:15:44;;;;;;;29.02;12.73;;;4.80;99.90;;;;;;5033865;28;20027;-64
2021/03/01 03:18:11;;;;;;;28.47;12.73;;;4.80;99.90;;;;;;5034068;28;20036;-63
2021/03/01 03:20:37;;;;;;;28.02;12.70;;;4.70;99.90;;;;;;5033783;28;20035;-61
2021/03/01 03:23:05;;;;;;;31.77;13.13;;;4.70;99.90;;;;;;5051779;28;20025;-61
2021/03/01 03:25:31;;;;;;;27.83;12.48;;;4.70;99.90;;;;;;5051599;28;20111;-64
2021/03/01 03:27:56;;;;;;;32.45;13.43;;;4.80;99.90;;;;;;5051189;28;20104;-63
2021/03/01 03:30:24;;;;;;;27.63;13.05;;;4.80;99.90;;;;;;5032886;28;20471;-64
2021/03/01 03:32:50;;;;;;;31.25;13.38;;;4.70;99.90;;;;;;5051356;28;20102;-64
2021/03/01 03:35:16;;;;;;;28.42;12.93;;;4.70;99.90;;;;;;5051359;28;20037;-63
2021/03/01 03:37:49;;;;;;;35.85;15.57;;;4.80;99.90;;;;;;5033162;28;20021;-63
2021/03/01 03:40:16;;;;;;;30.52;12.70;;;4.80;99.90;;;;;;5050745;28;20025;-64
2021/03/01 03:42:43;;;;;;;31.70;13.43;;;4.80;99.90;;;;;;5051279;28;20017;-62
2021/03/01 03:45:14;;;;;;;27.80;13.57;;;4.70;99.90;;;;;;5033242;28;20078;-63
2021/03/01 03:47:43;;;;;;;30.83;14.82;;;4.70;99.90;;;;;;5049999;28;20039;-62
2021/03/01 03:50:11;;;;;;;28.95;13.95;;;4.80;99.90;;;;;;5049340;28;20017;-61
2021/03/01 03:52:41;;;;;;;27.80;12.73;;;4.70;99.90;;;;;;5032839;28;20424;-61
2021/03/01 03:55:11;;;;;;;28.17;11.50;;;4.70;99.90;;;;;;5050557;28;20059;-64
2021/03/01 03:57:39;;;;;;;28.02;11.93;;;4.80;99.90;;;;;;5050611;28;20025;-63
2021/03/01 04:00:09;;;;;;;28.92;13.25;;;4.70;99.90;;;;;;5050520;28;20109;-63
2021/03/01 04:02:36;;;;;;;27.90;11.75;;;4.80;99.90;;;;;;5050812;28;20048;-64
2021/03/01 04:05:04;;;;;;;28.63;11.40;;;4.80;99.90;;;;;;5051040;28;20079;-61
2021/03/01 04:07:32;;;;;;;27.08;11.82;;;4.80;99.90;;;;;;5050670;28;20685;-63
2021/03/01 04:09:59;;;;;;;33.57;14.33;;;4.70;99.90;;;;;;5050048;28;20021;-63
2021/03/01 04:12:29;;;;;;;28.10;11.85;;;4.80;99.90;;;;;;5050566;28;20017;-63
2021/03/01 04:14:56;;;;;;;25.05;11.90;;;4.70;99.90;;;;;;5050637;28;20048;-63
2021/03/01 04:17:22;;;;;;;26.98;12.40;;;4.70;99.90;;;;;;5032969;28;20089;-64
2021/03/01 04:19:48;;;;;;;27.08;11.90;;;4.70;99.90;;;;;;5032031;28;20029;-64
2021/03/01 04:22:15;;;;;;;26.63;11.25;;;4.60;99.90;;;;;;5051189;28;20479;-63
2021/03/01 04:24:43;;;;;;;28.48;11.68;;;4.60;99.90;;;;;;5032849;28;20512;-64
2021/03/01 04:27:10;;;;;;;;;;;4.60;99.90;;;;;;5050953;28;20044;-63
2021/03/01 04:29:36;;;;;;;29.23;11.32;;;4.60;99.90;;;;;;5049889;28;20007;-64
2021/03/01 04:32:03;;;;;;;25.17;11.02;;;4.60;99.90;;;;;;5050113;28;20021;-64
2021/03/01 04:34:30;;;;;;;29.25;12.98;;;4.60;99.90;;;;;;5050629;28;20068;-61
2021/03/01 04:36:56;;;;;;;28.60;11.18;;;4.60;99.90;;;;;;5032337;28;20405;-61
2021/03/01 04:39:24;;;;;;;31.55;12.43;;;4.60;99.90;;;;;;5049618;28;20509;-61
2021/03/01 04:41:51;;;;;;;26.37;11.83;;;4.60;99.90;;;;;;5050538;28;20667;-60
2021/03/01 04:44:18;;;;;;;26.75;12.35;;;4.70;99.90;;;;;;5032892;28;20499;-65
2021/03/01 04:46:51;;;;;;;26.55;12.85;;;4.70;99.90;;;;;;5050616;28;20025;-62
2021/03/01 04:49:17;;;;;;;36.25;14.77;;;4.80;99.90;;;;;;5032079;28;20556;-62
2021/03/01 04:51:43;;;;;;;29.98;13.77;;;4.80;99.90;;;;;;5049941;28;20168;-62
2021/03/01 04:54:11;;;;;;;28.90;12.73;;;4.80;99.90;;;;;;5051205;28;20081;-62
2021/03/01 04:56:44;;;;;;;25.30;12.25;;;4.80;99.90;;;;;;5050700;28;20036;-61
2021/03/01 04:59:13;;;;;;;28.80;12.52;;;4.80;99.90;;;;;;5049841;28;20025;-61
2021/03/01 05:01:43;;;;;;;28.00;13.85;;;4.70;99.90;;;;;;5050665;28;20164;-62
2021/03/01 05:04:10;;;;;;;26.88;12.00;;;4.70;99.90;;;;;;5050591;28;20060;-62
2021/03/01 05:06:36;;;;;;;26.33;11.48;;;4.70;99.90;;;;;;5054244;28;20032;-61
2021/03/01 05:09:03;;;;;;;27.60;12.77;;;4.70;99.90;;;;;;5053625;28;20427;-61
2021/03/01 05:11:32;;;;;;;27.95;12.13;;;4.70;99.90;;;;;;5053584;28;20041;-63
2021/03/01 05:13:58;;;;;;;28.65;12.70;;;4.70;99.90;;;;;;5053861;28;20025;-61
2021/03/01 05:16:25;;;;;;;33.30;13.60;;;4.80;99.90;;;;;;5054261;28;20083;-61
2021/03/01 05:18:51;;;;;;;28.83;14.35;;;4.80;99.90;;;;;;5053675;28;20017;-61
2021/03/01 05:21:16;;;;;;;32.67;14.82;;;4.70;99.90;;;;;;5054527;28;20025;-60
2021/03/01 05:23:43;;;;;;;32.45;14.43;;;4.70;99.90;;;;;;5037218;28;20056;-61
2021/03/01 05:26:08;;;;;;;30.05;13.30;;;4.70;99.90;;;;;;5055899;28;20113;-62
2021/03/01 05:28:38;;;;;;;28.08;12.63;;;4.80;99.90;;;;;;5055805;28;20029;-61
2021/03/01 05:31:04;;;;;;;27.05;13.75;;;4.80;99.90;;;;;;5055850;28;20033;-61
2021/03/01 05:33:30;;;;;;;26.67;11.82;;;4.90;99.90;;;;;;5053919;28;20040;-62
2021/03/01 05:35:56;;;;;;;27.95;13.65;;;4.90;99.90;;;;;;5054220;28;20021;-62
2021/03/01 05:38:22;;;;;;;27.35;12.68;;;4.80;99.90;;;;;;5035694;28;20021;-61
2021/03/01 05:40:48;;;;;;;27.92;13.20;;;4.80;99.90;;;;;;5035823;28;20047;-61
2021/03/01 05:43:17;;;;;;;28.90;13.70;;;4.70;99.90;;;;;;5053901;28;20032;-62
2021/03/01 05:45:44;;;;;;;26.50;11.82;;;4.80;99.90;;;;;;5053842;28;20021;-62
2021/03/01 05:48:11;;;;;;;31.08;13.85;;;4.80;99.90;;;;;;5053346;28;20055;-62
2021/03/01 05:50:47;;;;;;;29.77;12.35;;;5.00;99.90;;;;;;5034719;28;20043;-62
2021/03/01 05:53:19;;;;;;;30.23;13.02;;;5.20;99.90;;;;;;5035539;28;20029;-64
2021/03/01 05:55:46;;;;;;;34.22;16.85;;;5.30;99.90;;;;;;5053101;28;20044;-63
2021/03/01 05:58:13;;;;;;;28.88;13.63;;;5.30;99.90;;;;;;5053377;28;20021;-60
2021/03/01 06:00:40;;;;;;;27.42;14.68;;;5.50;99.90;;;;;;5035819;28;20029;-61
2021/03/01 06:03:06;;;;;;;32.97;15.48;;;5.40;99.90;;;;;;5053766;28;20052;-64
2021/03/01 06:05:32;;;;;;;32.35;15.00;;;5.20;99.90;;;;;;5053408;28;20033;-63
2021/03/01 06:07:59;;;;;;;29.83;16.20;;;5.10;99.90;;;;;;5053205;28;20037;-62
2021/03/01 06:10:24;;;;;;;32.85;14.57;;;5.10;99.90;;;;;;5053137;28;20032;-63
2021/03/01 06:12:50;;;;;;;34.67;17.13;;;5.00;99.90;;;;;;5053158;28;20045;-61
2021/03/01 06:15:19;;;;;;;30.92;16.20;;;4.90;99.90;;;;;;5053130;28;20538;-62
2021/03/01 06:18:11;;;;;;;35.33;15.82;;;5.00;99.90;;;;;;5052043;28;20066;-63
2021/03/01 06:20:39;;;;;;;34.97;16.40;;;5.00;99.90;;;;;;5035101;28;20111;-59
2021/03/01 06:23:05;;;;;;;33.30;14.25;;;5.00;99.90;;;;;;5053185;28;20017;-63
2021/03/01 06:25:31;;;;;;;30.08;14.60;;;5.00;99.90;;;;;;5053295;28;20048;-63
2021/03/01 06:27:59;;;;;;;35.30;15.13;;;5.00;99.90;;;;;;5052475;28;20036;-63
2021/03/01 06:30:27;;;;;;;32.10;14.87;;;4.80;99.90;;;;;;5052589;28;20029;-63
2021/03/01 06:33:20;;;;;;;29.15;14.25;;;4.70;99.90;;;;;;5052513;28;20025;-62
2021/03/01 06:35:50;;;;;;;34.45;16.30;;;4.70;99.90;;;;;;5052512;28;20427;-61
2021/03/01 06:38:38;;;;;;;33.17;16.58;;;4.70;99.90;;;;;;5052384;28;20040;-63
2021/03/01 06:41:05;;;;;;;34.80;16.05;;;4.60;99.90;;;;;;5052455;28;20021;-62
2021/03/01 06:43:31;;;;;;;34.67;17.45;;;4.70;99.90;;;;;;5052593;28;20025;-60
2021/03/01 06:46:12;;;;;;;32.03;16.40;;;4.60;99.90;;;;;;5052234;28;20033;-62
2021/03/01 06:48:42;;;;;;;35.78;17.20;;;4.70;99.90;;;;;;5051786;28;20031;-62
2021/03/01 06:51:08;;;;;;;35.38;16.58;;;4.60;99.90;;;;;;5068102;22;20068;-55
2021/03/01 06:53:35;;;;;;;32.67;15.60;;;4.60;99.90;;;;;;5014930;28;20059;-58
2021/03/01 06:56:12;;;;;;;35.88;16.83;;;4.50;99.90;;;;;;4999180;28;20117;-58
2021/03/01 06:58:44;;;;;;;32.92;15.55;;;4.60;99.90;;;;;;4998860;28;20109;-57
2021/03/01 07:01:15;;;;;;;37.70;16.38;;;4.50;99.90;;;;;;4987600;28;20022;-57
2021/03/01 07:03:42;;;;;;;38.38;16.45;;;4.50;99.90;;;;;;5021769;28;20527;-59
2021/03/01 07:06:08;;;;;;;33.25;15.85;;;4.50;99.90;;;;;;5015669;28;20029;-58
2021/03/01 07:08:54;;;;;;;37.55;15.95;;;4.50;99.90;;;;;;4992076;28;20390;-57
2021/03/01 07:11:30;;;;;;;32.92;15.90;;;4.50;99.90;;;;;;4992578;28;20458;-58
2021/03/01 07:14:06;;;;;;;38.63;18.08;;;4.50;99.90;;;;;;4991493;28;20048;-59
2021/03/01 07:16:48;;;;;;;33.72;16.70;;;4.50;99.90;;;;;;5010031;28;20044;-54
2021/03/01 07:19:27;;;;;;;37.47;17.70;;;4.50;99.90;;;;;;5032378;28;20017;-58
2021/03/01 07:22:04;;;;;;;37.65;16.50;;;4.60;99.90;;;;;;5032330;28;20508;-53
2021/03/01 07:24:31;;;;;;;34.35;15.02;;;4.70;99.90;;;;;;5015283;28;20025;-55
2021/03/01 07:26:59;;;;;;;33.13;17.75;;;4.60;99.90;;;;;;5014717;28;20087;-57
2021/03/01 07:29:30;;;;;;;38.10;15.65;;;4.60;99.90;;;;;;5031235;28;20393;-57
2021/03/01 07:32:04;;;;;;;35.25;16.20;;;4.60;99.90;;;;;;5013643;28;20204;-62
2021/03/01 07:34:31;;;;;;;36.63;17.38;;;4.70;99.90;;;;;;4994941;28;20092;-60
2021/03/01 07:36:58;;;;;;;38.60;17.20;;;4.70;99.90;;;;;;4994195;28;20026;-53
2021/03/01 07:39:26;;;;;;;36.92;15.48;;;4.70;99.90;;;;;;4994357;28;20030;-56
2021/03/01 07:41:53;;;;;;;38.78;17.40;;;4.70;99.90;;;;;;5013374;28;20028;-56
2021/03/01 07:44:30;;;;;;;33.53;16.20;;;4.80;99.90;;;;;;5012096;28;20128;-58
2021/03/01 07:46:56;;;;;;;38.83;19.42;;;4.80;99.90;;;;;;4994935;28;20038;-57
2021/03/01 07:49:43;;;;;;;36.25;17.63;;;4.90;99.90;;;;;;5011924;28;20105;-56
2021/03/01 07:52:18;;;;;;;34.65;16.10;;;4.80;99.90;;;;;;4995283;28;20437;-60
2021/03/01 07:55:07;;;;;;;36.70;16.70;;;4.90;99.90;;;;;;4994418;28;20497;-58
2021/03/01 07:57:34;;;;;;;33.13;17.38;;;5.00;99.90;;;;;;5012502;28;20040;-59
2021/03/01 08:00:22;;;;;;;36.65;16.08;;;4.90;99.90;;;;;;5011681;28;20412;-55
2021/03/01 08:02:48;;;;;;;38.80;17.55;;;5.00;99.90;;;;;;5012431;28;20014;-57
2021/03/01 08:05:51;;;;;;;32.58;15.45;;;4.90;99.90;;;;;;5011382;28;20076;-55
2021/03/01 08:08:42;;;;;;;35.25;15.65;;;5.00;99.90;;;;;;5011280;28;20021;-58
2021/03/01 08:11:08;;;;;;;32.08;15.60;;;5.10;99.90;;;;;;5010654;28;20052;-54
2021/03/01 08:13:34;;;;;;;33.65;16.02;;;5.00;99.90;;;;;;5011884;28;20022;-57
2021/03/01 08:16:32;;;;;;;30.23;15.25;;;4.90;99.90;;;;;;5012129;28;20068;-57
2021/03/01 08:18:58;;;;;;;33.95;16.80;;;4.90;99.90;;;;;;4967178;28;20100;-55
2021/03/01 08:21:27;;;;;;;34.47;15.45;;;4.80;99.90;;;;;;5012089;28;20030;-53
2021/03/01 08:23:53;;;;;;;34.15;17.23;;;4.80;99.90;;;;;;4994743;28;20034;-57
2021/03/01 08:26:28;;;;;;;37.85;17.58;;;4.80;99.90;;;;;;4994612;28;20036;-58
2021/03/01 08:29:16;;;;;;;31.60;16.15;;;4.90;99.90;;;;;;5011285;28;20481;-57
2021/03/01 08:31:42;;;;;;;32.53;16.27;;;4.90;99.90;;;;;;5012048;28;20409;-54
2021/03/01 08:34:31;;;;;;;36.95;16.45;;;4.80;99.90;;;;;;5008420;28;20036;-59
2021/03/01 08:36:58;;;;;;;32.75;15.57;;;4.80;99.90;;;;;;5013900;28;20017;-53
2021/03/01 08:39:54;;;;;;;31.85;15.75;;;4.80;99.90;;;;;;5032754;28;20543;-58
2021/03/01 08:42:59;;;;;;;35.30;15.05;;;4.90;99.90;;;;;;5026373;28;20591;-55
2021/03/01 08:45:28;;;;;;;34.10;16.27;;;5.00;99.90;;;;;;5020011;28;20017;-53
2021/03/01 08:47:55;;;;;;;36.65;15.70;;;5.10;99.90;;;;;;5020186;28;20021;-55
2021/03/01 08:50:29;;;;;;;29.40;14.68;;;5.10;99.90;;;;;;5019753;28;20025;-57
2021/03/01 08:52:55;;;;;;;38.42;18.85;;;5.20;99.90;;;;;;5038048;28;20099;-54
2021/03/01 08:55:21;;;;;;;30.70;14.43;;;5.20;99.90;;;;;;5037813;28;20017;-50
2021/03/01 08:58:08;;;;;;;35.72;16.80;;;5.30;99.90;;;;;;5018964;28;20029;-52
2021/03/01 09:00:37;;;;;;;37.70;17.35;;;5.30;99.90;;;;;;5008252;28;20105;-51
2021/03/01 09:03:25;;;;;;;36.08;17.15;;;5.30;99.90;;;;;;5000469;28;20026;-55
2021/03/01 09:06:01;;;;;;;33.97;17.38;;;5.40;99.90;;;;;;5017632;28;20105;-53
2021/03/01 09:08:31;;;;;;;33.75;17.52;;;5.30;99.90;;;;;;4999412;28;20045;-57
2021/03/01 09:11:00;;;;;;;40.47;18.67;;;5.50;99.90;;;;;;5017733;28;20014;-56
2021/03/01 09:13:26;;;;;;;32.33;16.15;;;5.50;99.90;;;;;;4999245;28;20056;-61
2021/03/01 09:15:53;;;;;;;35.63;17.00;;;5.40;99.90;;;;;;5000187;28;20022;-62
2021/03/01 09:18:20;;;;;;;34.65;16.98;;;5.20;99.90;;;;;;5017172;28;20057;-59
2021/03/01 09:20:51;;;;;;;33.70;18.00;;;5.20;99.90;;;;;;5000142;28;20036;-60
2021/03/01 09:23:32;;;;;;;31.05;14.95;;;5.30;99.90;;;;;;5000010;28;20025;-59
2021/03/01 09:25:58;;;;;;;36.17;18.02;;;5.40;99.90;;;;;;5017878;28;20029;-61
2021/03/01 09:28:33;;;;;;;34.05;17.63;;;5.50;99.90;;;;;;5016577;28;20033;-61
2021/03/01 09:31:10;;;;;;;30.65;16.83;;;5.70;99.90;;;;;;5000246;28;20021;-59
2021/03/01 09:33:37;;;;;;;37.95;16.98;;;5.70;99.90;;;;;;5000088;28;20026;-60
2021/03/01 09:36:04;;;;;;;35.78;18.70;;;5.70;99.90;;;;;;5000211;28;20037;-59
2021/03/01 09:38:30;;;;;;;35.90;16.90;;;5.80;99.90;;;;;;5017160;28;20030;-58
2021/03/01 09:41:04;;;;;;;29.63;15.65;;;5.90;99.90;;;;;;5017443;28;20022;-57
2021/03/01 09:43:30;;;;;;;33.20;17.05;;;5.90;99.90;;;;;;4989276;28;20042;-57
2021/03/01 09:45:59;;;;;;;30.73;16.23;;;6.00;99.90;;;;;;5025467;28;20029;-59
2021/03/01 09:48:27;;;;;;;33.90;17.42;;;5.90;99.90;;;;;;5026389;28;20021;-59
2021/03/01 09:50:55;;;;;;;32.70;16.98;;;6.00;99.90;;;;;;5017441;28;20049;-62
2021/03/01 09:53:21;;;;;;;33.97;17.45;;;6.10;99.90;;;;;;5028278;28;20428;-60
2021/03/01 09:55:51;;;;;;;31.00;16.10;;;6.20;99.90;;;;;;5034357;28;20017;-60
2021/03/01 09:58:27;;;;;;;34.15;16.17;;;6.20;99.90;;;;;;5006481;28;20137;-60
2021/03/01 10:00:52;;;;;;;30.45;16.48;;;5.90;99.90;;;;;;4996295;28;20033;-58
2021/03/01 10:03:18;;;;;;;29.92;16.08;;;6.10;99.90;;;;;;5014207;28;20073;-59
2021/03/01 10:05:49;;;;;;;31.42;16.48;;;6.10;99.90;;;;;;5014166;28;20106;-56
2021/03/01 10:08:25;;;;;;;34.42;17.67;;;6.00;99.90;;;;;;4996211;28;20453;-58
2021/03/01 10:10:52;;;;;;;29.67;16.13;;;6.00;99.90;;;;;;4995766;28;20049;-61
2021/03/01 10:13:33;;;;;;;31.40;16.77;;;6.10;99.90;;;;;;4995983;28;20052;-59
2021/03/01 10:16:04;;;;;;;27.60;14.95;;;6.30;99.90;;;;;;4996131;28;20072;-60
2021/03/01 10:18:32;;;;;;;28.95;15.07;;;6.20;99.90;;;;;;5013057;28;20050;-59
2021/03/01 10:21:02;;;;;;;33.97;14.43;;;6.40;99.90;;;;;;4996494;28;20446;-59
2021/03/01 10:23:39;;;;;;;33.45;13.93;;;6.20;99.90;;;;;;4996511;28;20030;-59
2021/03/01 10:26:06;;;;;;;26.85;13.27;;;6.40;99.90;;;;;;5013770;28;20026;-60
2021/03/01 10:28:36;;;;;;;31.50;16.85;;;6.30;99.90;;;;;;4996019;28;20033;-59
2021/03/01 10:31:12;;;;;;;26.90;14.65;;;6.40;99.90;;;;;;4996764;28;20054;-60
2021/03/01 10:33:54;;;;;;;30.10;15.20;;;6.40;99.90;;;;;;4996335;28;20494;-60
2021/03/01 10:36:20;;;;;;;28.58;15.23;;;6.40;99.90;;;;;;4996341;28;20549;-57
2021/03/01 10:38:58;;;;;;;30.92;16.08;;;6.50;99.90;;;;;;4995842;28;20029;-55
2021/03/01 10:41:25;;;;;;;;;;;6.40;99.90;;;;;;5013926;28;20049;-61
2021/03/01 10:44:07;;;;;;;27.85;15.52;;;6.40;99.90;;;;;;5013297;28;19949;-56
2021/03/01 10:46:43;;;;;;;27.23;15.25;;;6.40;99.90;;;;;;5013651;28;20060;-60
2021/03/01 10:49:21;;;;;;;31.67;16.25;;;6.30;99.90;;;;;;5013257;28;20025;-54
2021/03/01 10:51:48;;;;;;;28.75;15.23;;;6.30;99.90;;;;;;5013342;28;20033;-62
2021/03/01 10:54:14;;;;;;;35.40;17.27;;;6.60;99.90;;;;;;5013570;28;20036;-58
2021/03/01 10:56:40;;;;;;;29.38;14.85;;;6.80;99.90;;;;;;5012870;28;20030;-58
2021/03/01 10:59:06;;;;;;;33.40;15.75;;;7.00;99.90;;;;;;5012843;28;20482;-59
2021/03/01 11:01:37;;;;;;;28.13;13.77;;;7.20;99.90;;;;;;5013481;28;20515;-57
2021/03/01 11:04:04;;;;;;;35.38;15.60;;;7.20;99.90;;;;;;5012889;28;20404;-57
2021/03/01 11:06:30;;;;;;;31.05;14.85;;;7.10;99.90;;;;;;4995845;28;20205;-56
2021/03/01 11:08:56;;;;;;;28.00;15.48;;;7.10;99.90;;;;;;5012158;28;20021;-54
2021/03/01 11:11:23;;;;;;;31.55;17.23;;;7.30;99.90;;;;;;5013180;28;20041;-60
2021/03/01 11:13:49;;;;;;;33.63;16.52;;;7.50;99.90;;;;;;4995829;28;20022;-58
2021/03/01 11:16:15;;;;;;;36.38;17.45;;;;;;;;;;4995786;28;20032;-56
2021/03/01 11:18:41;;;;;;;27.90;15.93;;;;;;;;;;5012541;28;20079;-56
2021/03/01 11:21:07;;;;;;;31.02;17.08;;;;;;;;;;5013319;28;20022;-59
2021/03/01 11:23:33;;;;;;;31.08;17.25;;;;;;;;;;4996786;28;20040;-58
2021/03/01 11:25:59;;;;;;;30.55;16.48;;;;;;;;;;5019315;28;20113;-62
2021/03/01 11:28:25;;;;;;;31.67;16.70;;;;;;;;;;5018184;28;20049;-58
2021/03/01 11:30:51;;;;;;;30.10;16.88;;;;;;;;;;5000379;28;20505;-60
2021/03/01 11:33:19;;;;;;;33.60;17.10;;;;;;;;;;4998508;28;20417;-59
2021/03/01 11:35:46;;;;;;;33.30;17.17;;;;;;;;;;5013678;28;20030;-59
2021/03/01 11:38:12;;;;;;;30.08;16.50;;;;;;;;;;4995850;28;20026;-62
2021/03/01 11:40:38;;;;;;;30.42;16.00;;;;;;;;;;4994266;28;20080;-58
2021/03/01 11:43:04;;;;;;;29.58;16.13;;;;;;;;;;5012363;28;20018;-57
2021/03/01 11:45:30;;;;;;;29.42;16.30;;;7.60;99.90;;;;;;5012851;28;20029;-58
2021/03/01 11:47:56;;;;;;;29.02;15.55;;;8.00;99.90;;;;;;5012515;28;20109;-57
2021/03/01 11:50:22;;;;;;;29.80;15.70;;;;;;;;;;4977832;28;20107;-59
2021/03/01 11:52:47;;;;;;;28.85;16.58;;;8.00;99.90;;;;;;4994254;28;20032;-58
2021/03/01 11:55:13;;;;;;;27.13;16.13;;;8.60;99.90;;;;;;4992392;28;20034;-56
2021/03/01 11:57:39;;;;;;;26.55;15.30;;;9.00;99.90;;;;;;5011457;28;20026;-55
2021/03/01 12:00:07;;;;;;;26.95;15.77;;;8.80;99.90;;;;;;4993384;28;20072;-55
2021/03/01 12:02:33;;;;;;;;;;;8.50;99.90;;;;;;5012425;28;20041;-61
2021/03/01 12:05:00;;;;;;;28.35;15.32;;;8.60;99.90;;;;;;4994914;28;20020;-57
2021/03/01 12:07:26;;;;;;;31.13;14.77;;;8.50;99.90;;;;;;4994288;28;20033;-59
2021/03/01 12:09:51;;;;;;;29.10;16.08;;;8.50;99.90;;;;;;5011160;28;20026;-60
2021/03/01 12:12:17;;;;;;;28.65;14.73;;;8.10;99.90;;;;;;4993901;28;20103;-59
2021/03/01 12:14:42;;;;;;;28.88;15.07;;;8.20;99.90;;;;;;4993693;28;20156;-58
2021/03/01 12:17:08;;;;;;;32.00;15.95;;;8.00;99.90;;;;;;5012678;28;20110;-56
2021/03/01 12:19:34;;;;;;;29.75;15.93;;;8.30;99.90;;;;;;4994086;28;20022;-58
2021/03/01 12:21:59;;;;;;;30.55;15.20;;;8.70;99.90;;;;;;4993823;28;20363;-59
2021/03/01 12:24:25;;;;;;;26.33;15.50;;;9.10;99.90;;;;;;4994324;28;20454;-59
2021/03/01 12:26:51;;;;;;;29.45;15.65;;;9.40;99.90;;;;;;5010923;28;20409;-57
2021/03/01 12:29:16;;;;;;;28.33;16.23;;;10.20;99.90;;;;;;5011327;28;20030;-61
2021/03/01 12:31:42;;;;;;;27.73;16.58;;;10.50;99.90;;;;;;4993763;28;20072;-59
2021/03/01 12:34:07;;;;;;;28.02;16.33;;;10.50;99.90;;;;;;5012412;28;20034;-58
2021/03/01 12:36:33;;;;;;;26.90;17.20;;;11.00;99.90;;;;;;5012244;28;20026;-59
2021/03/01 12:38:59;;;;;;;28.05;17.80;;;11.00;99.90;;;;;;4994972;28;20038;-61
2021/03/01 12:41:25;;;;;;;28.40;18.83;;;11.10;99.90;;;;;;5013514;28;20420;-60
2021/03/01 12:43:50;;;;;;;29.33;18.67;;;11.20;99.90;;;;;;5013566;28;20026;-58
2021/03/01 12:46:16;;;;;;;27.73;19.25;;;11.60;99.90;;;;;;4995632;28;20053;-59
2021/03/01 12:48:42;;;;;;;28.80;19.80;;;11.50;99.90;;;;;;4994915;28;20386;-58
2021/03/01 12:53:36;;;;;;;28.58;18.92;;;11.50;99.90;;;;;;5021425;28;20046;-51
2021/03/01 12:56:02;;;;;;;33.08;19.70;;;11.40;99.90;;;;;;5011447;28;20041;-50